createdAt,value
2018-09-07T00:00:21.733Z,309.1
2018-09-07T00:01:22.467Z,289.7
2018-09-07T00:02:23.199Z,277.0
2018-09-07T00:03:24.225Z,280.8
2018-09-07T00:04:24.945Z,275.8
2018-09-07T00:05:25.680Z,281.2
2018-09-07T00:06:26.399Z,284.9
2018-09-07T00:07:27.127Z,270.1
2018-09-07T00:08:27.858Z,263.2
2018-09-07T00:09:28.584Z,256.7
2018-09-07T00:10:29.308Z,247.1
2018-09-07T00:11:30.034Z,226.8
2018-09-07T00:12:30.817Z,227.6
2018-09-07T00:13:31.546Z,222.0
2018-09-07T00:14:32.292Z,228.8
2018-09-07T00:15:33.007Z,224.0
2018-09-07T00:16:33.748Z,226.5
2018-09-07T00:17:35.072Z,218.3
2018-09-07T00:18:35.800Z,221.8
2018-09-07T00:19:36.526Z,215.3
2018-09-07T00:20:37.261Z,203.2
2018-09-07T00:21:37.985Z,209.7
2018-09-07T00:22:38.720Z,204.9
2018-09-07T00:23:39.449Z,207.2
2018-09-07T00:24:40.167Z,198.1
2018-09-07T00:25:40.895Z,201.5
2018-09-07T00:26:41.604Z,204.0
2018-09-07T00:27:42.694Z,207.7
2018-09-07T00:28:43.418Z,188.8
2018-09-07T00:29:44.140Z,201.1
2018-09-07T00:30:44.867Z,188.9
2018-09-07T00:31:45.595Z,204.7
2018-09-07T00:32:46.321Z,186.7
2018-09-07T00:33:47.041Z,190.2
2018-09-07T00:34:48.012Z,199.8
2018-09-07T00:35:48.982Z,180.2
2018-09-07T00:36:49.706Z,172.1
2018-09-07T00:37:50.435Z,157.2
2018-09-07T00:38:51.159Z,171.1
2018-09-07T00:39:51.883Z,156.7
2018-09-07T00:40:52.598Z,162.8
2018-09-07T00:41:53.319Z,156.0
2018-09-07T00:42:54.102Z,153.3
2018-09-07T00:43:54.818Z,154.7
2018-09-07T00:44:55.542Z,142.0
2018-09-07T00:45:56.263Z,141.6
2018-09-07T00:46:56.996Z,144.2
2018-09-07T00:47:58.069Z,143.3
2018-09-07T00:48:58.799Z,140.1
2018-09-07T00:49:59.519Z,135.8
2018-09-07T00:51:00.251Z,131.5
2018-09-07T00:52:00.973Z,135.7
2018-09-07T00:53:01.783Z,137.7
2018-09-07T00:54:02.501Z,128.6
2018-09-07T00:55:03.470Z,128.3
2018-09-07T00:56:04.205Z,118.1
2018-09-07T00:57:05.176Z,111.4
2018-09-07T00:58:05.954Z,114.2
2018-09-07T00:59:06.679Z,109.6
2018-09-07T01:00:07.398Z,115.0
2018-09-07T01:01:08.132Z,117.8
2018-09-07T01:02:08.863Z,111.4
2018-09-07T01:03:09.623Z,110.4
2018-09-07T01:04:10.354Z,106.9
2018-09-07T01:05:11.074Z,106.9
2018-09-07T01:06:12.050Z,102.4
2018-09-07T01:07:12.784Z,102.8
2018-09-07T01:08:13.510Z,106.1
2018-09-07T01:09:14.242Z,103.5
2018-09-07T01:10:14.965Z,100.0
2018-09-07T01:11:15.695Z,102.3
2018-09-07T01:12:16.427Z,104.3
2018-09-07T01:13:17.163Z,111.7
2018-09-07T01:14:17.888Z,103.4
2018-09-07T01:15:19.053Z,106.8
2018-09-07T01:16:19.690Z,102.4
2018-09-07T01:17:20.406Z,102.9
2018-09-07T01:18:21.128Z,101.1
2018-09-07T01:19:21.857Z,98.2
2018-09-07T01:20:22.580Z,95.7
2018-09-07T01:21:23.309Z,85.8
2018-09-07T01:22:24.028Z,91.7
2018-09-07T01:23:24.754Z,79.4
2018-09-07T01:24:25.498Z,75.2
2018-09-07T01:25:26.199Z,71.3
2018-09-07T01:26:26.919Z,74.1
2018-09-07T01:27:27.891Z,74.8
2018-09-07T01:28:28.619Z,81.7
2018-09-07T01:29:29.341Z,67.8
2018-09-07T01:30:30.053Z,71.6
2018-09-07T01:31:30.783Z,69.5
2018-09-07T01:32:31.505Z,70.4
2018-09-07T01:33:32.238Z,72.7
2018-09-07T01:34:32.957Z,70.3
2018-09-07T01:35:33.687Z,69.8
2018-09-07T01:36:34.465Z,68.6
2018-09-07T01:37:35.200Z,69.9
2018-09-07T01:38:35.917Z,69.5
2018-09-07T01:39:36.641Z,66.9
2018-09-07T01:40:37.618Z,67.8
2018-09-07T01:41:38.343Z,69.3
2018-09-07T01:42:39.053Z,66.5
2018-09-07T01:43:40.021Z,69.1
2018-09-07T01:44:40.759Z,63.8
2018-09-07T01:45:41.485Z,63.7
2018-09-07T01:46:42.208Z,63.1
2018-09-07T01:47:43.176Z,65.7
2018-09-07T01:48:43.899Z,62.3
2018-09-07T01:49:44.621Z,57.5
2018-09-07T01:50:45.338Z,49.8
2018-09-07T01:51:46.064Z,45.5
2018-09-07T01:52:46.786Z,40.7
2018-09-07T01:53:47.509Z,36.6
2018-09-07T01:54:48.303Z,34.8
2018-09-07T01:55:49.010Z,35.3
2018-09-07T01:56:49.741Z,32.1
2018-09-07T01:57:50.468Z,31.1
2018-09-07T01:58:51.186Z,31.6
2018-09-07T01:59:51.958Z,29.7
2018-09-07T02:00:52.678Z,30.0
2018-09-07T02:01:53.402Z,29.8
2018-09-07T02:02:54.124Z,24.7
2018-09-07T02:03:54.851Z,25.2
2018-09-07T02:04:55.571Z,23.4
2018-09-07T02:05:56.299Z,21.9
2018-09-07T02:06:57.009Z,21.2
2018-09-07T02:07:57.754Z,21.9
2018-09-07T02:08:58.821Z,22.0
2018-09-07T02:09:59.743Z,23.0
2018-09-07T02:11:00.465Z,19.9
2018-09-07T02:12:01.192Z,19.7
2018-09-07T02:13:01.914Z,18.3
2018-09-07T02:14:02.623Z,19.5
2018-09-07T02:15:03.335Z,21.1
2018-09-07T02:16:04.052Z,19.0
2018-09-07T02:17:04.781Z,18.6
2018-09-07T02:18:05.500Z,17.3
2018-09-07T02:19:06.485Z,19.4
2018-09-07T02:20:07.472Z,17.3
2018-09-07T02:21:08.200Z,18.6
2018-09-07T02:22:08.924Z,16.9
2018-09-07T02:23:10.002Z,18.2
2018-09-07T02:24:10.724Z,17.2
2018-09-07T02:25:11.443Z,15.1
2018-09-07T02:26:12.162Z,15.2
2018-09-07T02:27:13.127Z,15.1
2018-09-07T02:28:13.852Z,15.0
2018-09-07T02:29:14.567Z,17.4
2018-09-07T02:30:15.620Z,15.3
2018-09-07T02:31:16.316Z,14.7
2018-09-07T02:32:17.297Z,14.8
2018-09-07T02:33:18.029Z,15.7
2018-09-07T02:34:18.751Z,14.8
2018-09-07T02:35:19.472Z,15.3
2018-09-07T02:36:20.203Z,14.1
2018-09-07T02:37:20.922Z,13.4
2018-09-07T02:38:21.663Z,16.9
2018-09-07T02:39:22.381Z,14.5
2018-09-07T02:40:23.111Z,13.1
2018-09-07T02:41:23.828Z,14.3
2018-09-07T02:42:24.546Z,13.4
2018-09-07T02:43:25.287Z,13.8
2018-09-07T02:44:25.994Z,13.4
2018-09-07T02:45:26.728Z,12.8
2018-09-07T02:46:27.458Z,13.0
2018-09-07T02:47:28.181Z,13.2
2018-09-07T02:48:28.958Z,13.1
2018-09-07T02:49:29.684Z,14.0
2018-09-07T02:50:30.398Z,14.0
2018-09-07T02:51:31.123Z,12.6
2018-09-07T02:52:31.835Z,12.6
2018-09-07T02:53:32.609Z,13.0
2018-09-07T02:54:33.331Z,11.5
2018-09-07T02:55:34.045Z,11.9
2018-09-07T02:56:34.772Z,12.1
2018-09-07T02:57:35.486Z,11.3
2018-09-07T02:58:36.198Z,10.8
2018-09-07T02:59:36.929Z,11.2
2018-09-07T03:00:37.655Z,11.4
2018-09-07T03:01:38.372Z,11.3
2018-09-07T03:02:42.043Z,10.5
2018-09-07T03:03:44.217Z,12.6
2018-09-07T03:04:44.298Z,12.6
2018-09-07T03:05:45.708Z,12.4
2018-09-07T03:06:46.818Z,11.9
2018-09-07T03:07:48.241Z,12.7
2018-09-07T03:08:49.326Z,13.7
2018-09-07T03:09:50.413Z,15.5
2018-09-07T03:10:51.518Z,12.7
2018-09-07T03:11:52.672Z,13.4
2018-09-07T03:12:54.113Z,13.8
2018-09-07T03:13:55.359Z,14.1
2018-09-07T03:14:56.476Z,14.0
2018-09-07T03:15:57.555Z,14.5
2018-09-07T03:16:58.641Z,15.8
2018-09-07T03:17:59.604Z,15.4
2018-09-07T03:19:00.443Z,13.9
2018-09-07T03:20:01.501Z,13.2
2018-09-07T03:21:02.771Z,14.7
2018-09-07T03:22:03.791Z,14.1
2018-09-07T03:23:04.772Z,15.4
2018-09-07T03:24:05.496Z,18.1
2018-09-07T03:25:06.492Z,13.2
2018-09-07T03:26:07.558Z,15.1
2018-09-07T03:27:08.641Z,13.5
2018-09-07T03:28:09.384Z,15.7
2018-09-07T03:29:10.109Z,16.8
2018-09-07T03:30:10.853Z,15.7
2018-09-07T03:31:11.712Z,14.9
2018-09-07T03:32:12.345Z,14.9
2018-09-07T03:33:13.075Z,16.6
2018-09-07T03:34:13.800Z,15.1
2018-09-07T03:35:14.792Z,15.4
2018-09-07T03:36:15.784Z,15.7
2018-09-07T03:37:16.503Z,14.2
2018-09-07T03:38:17.281Z,15.3
2018-09-07T03:39:18.248Z,16.9
2018-09-07T03:40:18.964Z,18.6
2018-09-07T03:41:19.670Z,16.5
2018-09-07T03:42:20.401Z,17.5
2018-09-07T03:43:21.193Z,17.0
2018-09-07T03:44:21.903Z,16.9
2018-09-07T03:45:22.640Z,18.3
2018-09-07T03:46:23.370Z,16.7
2018-09-07T03:47:24.090Z,18.6
2018-09-07T03:48:24.818Z,16.5
2018-09-07T03:49:25.570Z,16.9
2018-09-07T03:50:26.280Z,21.9
2018-09-07T03:51:27.007Z,21.4
2018-09-07T03:52:27.720Z,16.2
2018-09-07T03:53:28.714Z,16.3
2018-09-07T03:54:29.437Z,23.4
2018-09-07T03:55:30.456Z,19.4
2018-09-07T03:56:31.173Z,23.1
2018-09-07T03:57:31.895Z,20.4
2018-09-07T03:58:32.616Z,17.1
2018-09-07T03:59:33.339Z,21.4
2018-09-07T04:00:34.323Z,16.9
2018-09-07T04:01:35.037Z,21.9
2018-09-07T04:02:35.771Z,19.2
2018-09-07T04:03:36.527Z,20.4
2018-09-07T04:04:37.253Z,17.9
2018-09-07T04:05:38.139Z,19.3
2018-09-07T04:06:39.121Z,19.3
2018-09-07T04:07:39.940Z,20.7
2018-09-07T04:08:40.696Z,19.5
2018-09-07T04:09:41.442Z,18.1
2018-09-07T04:10:42.456Z,18.7
2018-09-07T04:11:43.193Z,17.2
2018-09-07T04:12:43.989Z,18.2
2018-09-07T04:13:44.799Z,19.8
2018-09-07T04:14:45.568Z,16.3
2018-09-07T04:15:46.791Z,15.9
2018-09-07T04:16:47.507Z,17.3
2018-09-07T04:17:48.709Z,18.5
2018-09-07T04:18:50.219Z,15.1
2018-09-07T04:19:50.993Z,14.8
2018-09-07T04:20:51.922Z,17.7
2018-09-07T04:21:52.655Z,16.1
2018-09-07T04:22:53.436Z,17.4
2018-09-07T04:23:54.248Z,19.8
2018-09-07T04:24:55.000Z,16.6
2018-09-07T04:25:55.917Z,15.7
2018-09-07T04:26:56.956Z,15.9
2018-09-07T04:27:57.750Z,17.0
2018-09-07T04:28:58.474Z,16.8
2018-09-07T04:29:59.751Z,19.4
2018-09-07T04:31:00.541Z,18.4
2018-09-07T04:32:01.690Z,17.5
2018-09-07T04:33:02.420Z,20.0
2018-09-07T04:34:03.360Z,20.3
2018-09-07T04:35:04.090Z,17.1
2018-09-07T04:36:04.882Z,19.3
2018-09-07T04:37:05.675Z,18.9
2018-09-07T04:38:06.398Z,17.6
2018-09-07T04:39:07.105Z,21.8
2018-09-07T04:40:08.096Z,20.2
2018-09-07T04:41:08.847Z,19.9
2018-09-07T04:42:09.544Z,21.5
2018-09-07T04:43:10.272Z,20.5
2018-09-07T04:44:10.993Z,22.5
2018-09-07T04:45:11.980Z,22.5
2018-09-07T04:46:12.696Z,18.1
2018-09-07T04:47:13.415Z,24.8
2018-09-07T04:48:14.227Z,20.1
2018-09-07T04:49:14.889Z,18.2
2018-09-07T04:50:15.609Z,20.5
2018-09-07T04:51:16.346Z,19.2
2018-09-07T04:52:17.079Z,21.1
2018-09-07T04:53:17.810Z,19.9
2018-09-07T04:54:18.536Z,20.7
2018-09-07T04:55:19.343Z,22.0
2018-09-07T04:56:20.064Z,23.6
2018-09-07T04:57:20.790Z,17.3
2018-09-07T04:58:21.602Z,19.5
2018-09-07T04:59:22.281Z,22.6
2018-09-07T05:00:22.994Z,21.4
2018-09-07T05:01:23.712Z,18.5
2018-09-07T05:02:24.445Z,25.4
2018-09-07T05:03:25.174Z,23.1
2018-09-07T05:04:25.899Z,24.2
2018-09-07T05:05:26.631Z,27.8
2018-09-07T05:06:27.350Z,22.8
2018-09-07T05:07:28.322Z,25.9
2018-09-07T05:08:29.061Z,24.4
2018-09-07T05:09:29.779Z,25.5
2018-09-07T05:10:30.497Z,28.6
2018-09-07T05:11:31.224Z,25.0
2018-09-07T05:12:31.954Z,26.2
2018-09-07T05:13:32.688Z,27.1
2018-09-07T05:14:33.418Z,24.8
2018-09-07T05:15:34.135Z,29.6
2018-09-07T05:16:35.128Z,24.4
2018-09-07T05:17:35.848Z,24.3
2018-09-07T05:18:36.585Z,24.3
2018-09-07T05:19:37.323Z,23.8
2018-09-07T05:20:38.068Z,22.1
2018-09-07T05:21:39.077Z,24.1
2018-09-07T05:22:39.794Z,25.6
2018-09-07T05:23:40.510Z,25.3
2018-09-07T05:24:41.238Z,27.9
2018-09-07T05:25:42.022Z,24.9
2018-09-07T05:26:42.773Z,23.6
2018-09-07T05:27:43.489Z,23.7
2018-09-07T05:28:44.214Z,20.5
2018-09-07T05:29:44.937Z,20.3
2018-09-07T05:30:45.717Z,25.2
2018-09-07T05:31:46.437Z,24.3
2018-09-07T05:32:47.169Z,21.6
2018-09-07T05:33:47.900Z,18.5
2018-09-07T05:34:48.616Z,21.2
2018-09-07T05:35:49.335Z,19.5
2018-09-07T05:36:50.057Z,19.6
2018-09-07T05:37:51.029Z,21.7
2018-09-07T05:38:51.770Z,19.4
2018-09-07T05:39:52.541Z,21.9
2018-09-07T05:40:53.271Z,22.9
2018-09-07T05:41:54.011Z,22.3
2018-09-07T05:42:54.746Z,19.4
2018-09-07T05:43:55.463Z,19.8
2018-09-07T05:44:56.190Z,21.9
2018-09-07T05:45:56.917Z,22.4
2018-09-07T05:46:58.333Z,19.9
2018-09-07T05:47:59.390Z,23.1
2018-09-07T05:49:01.169Z,19.3
2018-09-07T05:50:02.762Z,22.3
2018-09-07T05:51:03.588Z,20.5
2018-09-07T05:52:04.711Z,18.0
2018-09-07T05:53:05.467Z,22.4
2018-09-07T05:54:06.580Z,20.7
2018-09-07T05:55:07.599Z,24.9
2018-09-07T05:56:08.647Z,23.3
2018-09-07T05:57:09.451Z,24.0
2018-09-07T05:58:10.431Z,20.4
2018-09-07T05:59:11.163Z,24.6
2018-09-07T06:00:11.896Z,24.9
2018-09-07T06:01:12.622Z,26.3
2018-09-07T06:02:13.359Z,24.8
2018-09-07T06:03:14.106Z,23.3
2018-09-07T06:04:14.831Z,22.1
2018-09-07T06:05:15.576Z,23.9
2018-09-07T06:06:16.307Z,26.5
2018-09-07T06:07:17.035Z,25.3
2018-09-07T06:08:17.767Z,23.0
2018-09-07T06:09:18.482Z,26.2
2018-09-07T06:10:19.264Z,28.7
2018-09-07T06:11:19.989Z,25.0
2018-09-07T06:12:20.713Z,28.8
2018-09-07T06:13:21.437Z,30.1
2018-09-07T06:14:22.169Z,30.6
2018-09-07T06:15:22.945Z,32.8
2018-09-07T06:16:23.682Z,30.5
2018-09-07T06:17:24.398Z,25.8
2018-09-07T06:18:25.127Z,33.0
2018-09-07T06:19:25.839Z,34.2
2018-09-07T06:20:26.620Z,32.6
2018-09-07T06:21:27.343Z,37.2
2018-09-07T06:22:28.066Z,33.5
2018-09-07T06:23:28.783Z,36.3
2018-09-07T06:24:29.511Z,38.5
2018-09-07T06:25:30.286Z,43.0
2018-09-07T06:26:31.021Z,40.0
2018-09-07T06:27:31.756Z,36.9
2018-09-07T06:28:32.488Z,40.4
2018-09-07T06:29:33.469Z,37.8
2018-09-07T06:30:34.206Z,34.7
2018-09-07T06:31:34.951Z,39.1
2018-09-07T06:32:35.717Z,47.4
2018-09-07T06:33:36.398Z,42.4
2018-09-07T06:34:37.112Z,41.4
2018-09-07T06:35:37.890Z,46.0
2018-09-07T06:36:38.614Z,49.0
2018-09-07T06:37:39.338Z,44.4
2018-09-07T06:38:40.144Z,49.8
2018-09-07T06:39:40.802Z,50.4
2018-09-07T06:40:41.581Z,51.9
2018-09-07T06:41:42.315Z,49.1
2018-09-07T06:42:43.041Z,44.5
2018-09-07T06:43:43.773Z,51.1
2018-09-07T06:44:44.499Z,53.1
2018-09-07T06:45:45.234Z,45.2
2018-09-07T06:46:46.009Z,52.9
2018-09-07T06:47:46.684Z,49.5
2018-09-07T06:48:47.408Z,48.0
2018-09-07T06:49:48.133Z,60.4
2018-09-07T06:50:48.867Z,47.8
2018-09-07T06:51:49.594Z,56.9
2018-09-07T06:52:50.341Z,50.9
2018-09-07T06:53:51.063Z,51.5
2018-09-07T06:54:51.788Z,53.8
2018-09-07T06:55:52.518Z,55.2
2018-09-07T06:56:53.254Z,55.1
2018-09-07T06:57:53.983Z,53.5
2018-09-07T06:58:54.719Z,50.5
2018-09-07T06:59:55.501Z,51.7
2018-09-07T07:00:56.235Z,56.3
2018-09-07T07:01:56.965Z,55.8
2018-09-07T07:02:57.737Z,54.9
2018-09-07T07:03:58.424Z,54.9
2018-09-07T07:04:59.226Z,54.1
2018-09-07T07:05:59.950Z,60.9
2018-09-07T07:07:00.678Z,55.4
2018-09-07T07:08:01.413Z,53.8
2018-09-07T07:09:02.135Z,58.3
2018-09-07T07:10:02.915Z,57.3
2018-09-07T07:11:03.646Z,57.9
2018-09-07T07:12:04.386Z,54.5
2018-09-07T07:13:05.109Z,55.7
2018-09-07T07:14:05.849Z,47.0
2018-09-07T07:15:06.581Z,49.2
2018-09-07T07:16:07.298Z,49.7
2018-09-07T07:17:08.028Z,49.8
2018-09-07T07:18:08.759Z,49.0
2018-09-07T07:19:09.738Z,51.1
2018-09-07T07:20:10.470Z,47.4
2018-09-07T07:21:11.250Z,50.0
2018-09-07T07:22:11.972Z,45.5
2018-09-07T07:23:12.713Z,52.7
2018-09-07T07:24:13.430Z,46.8
2018-09-07T07:25:15.628Z,51.7
2018-09-07T07:26:16.364Z,54.8
2018-09-07T07:27:17.151Z,55.5
2018-09-07T07:28:17.928Z,52.9
2018-09-07T07:29:18.734Z,46.2
2018-09-07T07:30:19.391Z,52.2
2018-09-07T07:31:20.126Z,48.8
2018-09-07T07:32:20.848Z,50.1
2018-09-07T07:33:21.568Z,52.9
2018-09-07T07:34:22.305Z,52.7
2018-09-07T07:35:23.029Z,49.9
2018-09-07T07:36:23.756Z,50.2
2018-09-07T07:37:24.488Z,43.2
2018-09-07T07:38:25.217Z,48.4
2018-09-07T07:39:25.942Z,47.5
2018-09-07T07:40:26.673Z,50.7
2018-09-07T07:41:27.465Z,48.8
2018-09-07T07:42:28.130Z,44.2
2018-09-07T07:43:28.858Z,45.8
2018-09-07T07:44:29.580Z,45.1
2018-09-07T07:45:30.309Z,46.2
2018-09-07T07:46:31.042Z,46.6
2018-09-07T07:47:31.824Z,49.1
2018-09-07T07:48:32.550Z,46.0
2018-09-07T07:49:33.532Z,45.3
2018-09-07T07:50:34.278Z,43.7
2018-09-07T07:51:35.001Z,46.2
2018-09-07T07:52:35.732Z,44.0
2018-09-07T07:53:36.459Z,45.8
2018-09-07T07:54:37.190Z,43.6
2018-09-07T07:55:37.919Z,42.9
2018-09-07T07:56:39.188Z,38.6
2018-09-07T07:57:39.912Z,37.2
2018-09-07T07:58:40.645Z,36.9
2018-09-07T07:59:41.364Z,36.5
2018-09-07T08:00:42.084Z,32.9
2018-09-07T08:01:43.101Z,37.3
2018-09-07T08:02:44.092Z,32.7
2018-09-07T08:03:44.827Z,36.6
2018-09-07T08:04:45.552Z,31.3
2018-09-07T08:05:46.349Z,34.4
2018-09-07T08:06:47.008Z,32.4
2018-09-07T08:07:47.742Z,24.5
2018-09-07T08:08:48.490Z,31.8
2018-09-07T08:09:49.222Z,29.6
2018-09-07T08:10:49.948Z,26.1
2018-09-07T08:11:50.677Z,31.0
2018-09-07T08:12:51.403Z,26.4
2018-09-07T08:13:52.122Z,26.9
2018-09-07T08:14:52.855Z,24.4
2018-09-07T08:15:53.583Z,23.0
2018-09-07T08:16:54.320Z,21.5
2018-09-07T08:17:55.091Z,23.7
2018-09-07T08:18:55.835Z,22.7
2018-09-07T08:19:56.561Z,28.9
2018-09-07T08:20:57.540Z,23.5
2018-09-07T08:21:58.266Z,20.2
2018-09-07T08:22:58.992Z,22.8
2018-09-07T08:23:59.729Z,22.7
2018-09-07T08:25:00.472Z,27.1
2018-09-07T08:26:01.213Z,19.7
2018-09-07T08:27:01.940Z,27.3
2018-09-07T08:28:02.666Z,27.3
2018-09-07T08:29:03.396Z,24.3
2018-09-07T08:30:04.177Z,25.7
2018-09-07T08:31:04.907Z,26.8
2018-09-07T08:32:05.641Z,28.1
2018-09-07T08:33:06.447Z,27.0
2018-09-07T08:34:07.398Z,28.7
2018-09-07T08:35:08.184Z,25.2
2018-09-07T08:36:08.902Z,31.8
2018-09-07T08:37:09.629Z,26.1
2018-09-07T08:38:10.379Z,24.7
2018-09-07T08:39:11.098Z,29.9
2018-09-07T08:40:11.825Z,27.4
2018-09-07T08:41:12.559Z,28.8
2018-09-07T08:42:13.308Z,26.8
2018-09-07T08:43:14.071Z,32.2
2018-09-07T08:44:14.758Z,21.8
2018-09-07T08:45:15.485Z,26.7
2018-09-07T08:46:16.215Z,28.0
2018-09-07T08:47:16.937Z,32.5
2018-09-07T08:48:17.672Z,29.9
2018-09-07T08:49:18.445Z,31.1
2018-09-07T08:50:19.219Z,30.0
2018-09-07T08:51:19.938Z,27.5
2018-09-07T08:52:20.676Z,27.7
2018-09-07T08:53:21.403Z,32.1
2018-09-07T08:54:22.128Z,31.5
2018-09-07T08:55:22.848Z,31.4
2018-09-07T08:56:23.567Z,26.2
2018-09-07T08:57:24.304Z,25.0
2018-09-07T08:58:25.036Z,25.6
2018-09-07T08:59:26.024Z,31.2
2018-09-07T09:00:26.746Z,28.0
2018-09-07T09:01:27.482Z,29.4
2018-09-07T09:02:28.221Z,23.7
2018-09-07T09:03:28.956Z,23.3
2018-09-07T09:04:29.698Z,25.3
2018-09-07T09:05:30.675Z,25.0
2018-09-07T09:06:31.405Z,26.8
2018-09-07T09:07:32.439Z,30.6
2018-09-07T09:08:33.177Z,24.6
2018-09-07T09:09:33.911Z,25.6
2018-09-07T09:10:34.644Z,25.9
2018-09-07T09:11:35.370Z,24.2
2018-09-07T09:12:36.101Z,28.5
2018-09-07T09:13:36.828Z,27.4
2018-09-07T09:14:37.559Z,26.3
2018-09-07T09:15:38.539Z,24.6
2018-09-07T09:16:39.275Z,24.9
2018-09-07T09:17:40.010Z,21.4
2018-09-07T09:18:40.743Z,25.4
2018-09-07T09:19:41.521Z,21.5
2018-09-07T09:20:42.498Z,21.6
2018-09-07T09:21:43.242Z,19.3
2018-09-07T09:22:43.974Z,21.0
2018-09-07T09:23:44.808Z,18.5
2018-09-07T09:24:45.800Z,20.2
2018-09-07T09:25:46.778Z,19.5
2018-09-07T09:26:47.513Z,17.3
2018-09-07T09:27:48.296Z,18.0
2018-09-07T09:28:49.023Z,17.0
2018-09-07T09:29:49.805Z,18.3
2018-09-07T09:30:50.534Z,16.4
2018-09-07T09:31:51.265Z,19.9
2018-09-07T09:32:52.007Z,16.1
2018-09-07T09:33:52.734Z,17.6
2018-09-07T09:34:53.461Z,15.1
2018-09-07T09:35:54.200Z,15.8
2018-09-07T09:36:54.924Z,15.6
2018-09-07T09:37:55.666Z,20.6
2018-09-07T09:38:56.393Z,17.6
2018-09-07T09:39:57.131Z,19.0
2018-09-07T09:40:57.909Z,16.9
2018-09-07T09:41:58.635Z,17.0
2018-09-07T09:42:59.370Z,17.5
2018-09-07T09:44:00.107Z,16.2
2018-09-07T09:45:00.842Z,16.3
2018-09-07T09:46:01.848Z,15.6
2018-09-07T09:47:02.610Z,17.0
2018-09-07T09:48:03.311Z,15.2
2018-09-07T09:49:04.304Z,18.0
2018-09-07T09:50:05.027Z,15.7
2018-09-07T09:51:06.004Z,16.9
2018-09-07T09:52:06.743Z,18.7
2018-09-07T09:53:07.553Z,13.4
2018-09-07T09:54:08.273Z,15.1
2018-09-07T09:55:09.009Z,14.4
2018-09-07T09:56:09.747Z,20.7
2018-09-07T09:57:10.478Z,18.8
2018-09-07T09:58:11.457Z,17.0
2018-09-07T09:59:12.558Z,15.1
2018-09-07T10:00:13.289Z,17.7
2018-09-07T10:01:14.036Z,16.2
2018-09-07T10:02:14.763Z,16.9
2018-09-07T10:03:15.492Z,16.3
2018-09-07T10:04:16.233Z,15.3
2018-09-07T10:05:16.958Z,16.7
2018-09-07T10:06:17.693Z,15.6
2018-09-07T10:07:18.418Z,15.3
2018-09-07T10:08:19.168Z,16.6
2018-09-07T10:09:19.939Z,16.5
2018-09-07T10:10:20.675Z,15.5
2018-09-07T10:11:21.423Z,18.1
2018-09-07T10:12:22.163Z,15.3
2018-09-07T10:13:22.880Z,16.7
2018-09-07T10:14:23.618Z,16.5
2018-09-07T10:15:24.403Z,16.9
2018-09-07T10:16:25.405Z,17.5
2018-09-07T10:17:26.166Z,16.2
2018-09-07T10:18:26.891Z,16.1
2018-09-07T10:19:27.680Z,14.2
2018-09-07T10:20:28.344Z,17.0
2018-09-07T10:21:29.074Z,15.2
2018-09-07T10:22:29.825Z,15.6
2018-09-07T10:23:30.597Z,19.0
2018-09-07T10:24:31.346Z,13.5
2018-09-07T10:25:32.177Z,15.1
2018-09-07T10:26:32.820Z,13.2
2018-09-07T10:27:33.557Z,14.3
2018-09-07T10:28:34.293Z,14.8
2018-09-07T10:29:35.028Z,13.9
2018-09-07T10:30:35.757Z,15.2
2018-09-07T10:31:36.519Z,13.4
2018-09-07T10:32:37.222Z,13.5
2018-09-07T10:33:38.200Z,12.6
2018-09-07T10:34:38.983Z,15.4
2018-09-07T10:35:39.754Z,13.2
2018-09-07T10:36:40.487Z,12.2
2018-09-07T10:37:41.305Z,16.2
2018-09-07T10:38:42.370Z,11.5
2018-09-07T10:39:43.150Z,12.0
2018-09-07T10:40:43.881Z,15.0
2018-09-07T10:41:44.865Z,12.9
2018-09-07T10:42:45.594Z,13.5
2018-09-07T10:43:46.328Z,14.2
2018-09-07T10:44:47.669Z,13.6
2018-09-07T10:45:48.409Z,13.8
2018-09-07T10:46:49.153Z,14.0
2018-09-07T10:47:49.890Z,17.8
2018-09-07T10:48:50.612Z,17.4
2018-09-07T10:49:51.333Z,15.9
2018-09-07T10:50:52.060Z,15.8
2018-09-07T10:51:52.804Z,17.8
2018-09-07T10:52:53.544Z,16.4
2018-09-07T10:53:54.272Z,18.6
2018-09-07T10:54:54.997Z,16.2
2018-09-07T10:55:55.733Z,15.2
2018-09-07T10:56:56.458Z,18.6
2018-09-07T10:57:57.208Z,15.6
2018-09-07T10:58:57.964Z,17.3
2018-09-07T10:59:58.669Z,21.3
2018-09-07T11:00:59.400Z,18.4
2018-09-07T11:02:00.131Z,23.9
2018-09-07T11:03:01.202Z,30.0
2018-09-07T11:04:01.930Z,24.8
2018-09-07T11:05:02.671Z,29.2
2018-09-07T11:06:03.400Z,25.4
2018-09-07T11:07:04.133Z,28.3
2018-09-07T11:08:04.867Z,27.7
2018-09-07T11:09:05.594Z,30.6
2018-09-07T11:10:06.329Z,29.5
2018-09-07T11:11:07.118Z,26.9
2018-09-07T11:12:07.843Z,28.0
2018-09-07T11:13:08.580Z,28.1
2018-09-07T11:14:09.320Z,22.9
2018-09-07T11:15:10.047Z,22.5
2018-09-07T11:16:10.794Z,22.2
2018-09-07T11:17:11.520Z,26.2
2018-09-07T11:18:12.252Z,24.7
2018-09-07T11:19:12.981Z,21.0
2018-09-07T11:20:13.719Z,18.1
2018-09-07T11:21:14.446Z,18.0
2018-09-07T11:22:15.190Z,19.3
2018-09-07T11:23:15.976Z,23.4
2018-09-07T11:24:16.712Z,18.1
2018-09-07T11:25:17.443Z,19.0
2018-09-07T11:26:18.166Z,17.5
2018-09-07T11:27:18.900Z,19.2
2018-09-07T11:28:19.622Z,22.1
2018-09-07T11:29:20.608Z,19.7
2018-09-07T11:30:21.590Z,17.5
2018-09-07T11:31:22.323Z,19.3
2018-09-07T11:32:23.053Z,19.2
2018-09-07T11:33:23.788Z,25.0
2018-09-07T11:34:24.519Z,18.1
2018-09-07T11:35:25.255Z,19.7
2018-09-07T11:36:25.984Z,20.9
2018-09-07T11:37:26.713Z,18.5
2018-09-07T11:38:27.439Z,20.9
2018-09-07T11:39:28.166Z,24.2
2018-09-07T11:40:28.900Z,23.3
2018-09-07T11:41:29.614Z,23.1
2018-09-07T11:42:30.363Z,22.8
2018-09-07T11:43:31.104Z,23.0
2018-09-07T11:44:31.831Z,22.2
2018-09-07T11:45:32.557Z,22.3
2018-09-07T11:46:33.285Z,20.6
2018-09-07T11:47:34.263Z,25.9
2018-09-07T11:48:34.989Z,21.4
2018-09-07T11:49:35.723Z,25.1
2018-09-07T11:50:36.447Z,24.2
2018-09-07T11:51:37.181Z,25.0
2018-09-07T11:52:37.902Z,20.5
2018-09-07T11:53:38.624Z,20.0
2018-09-07T11:54:39.412Z,19.1
2018-09-07T11:55:40.144Z,20.1
2018-09-07T11:56:40.872Z,19.6
2018-09-07T11:57:41.612Z,20.6
2018-09-07T11:58:42.337Z,21.5
2018-09-07T11:59:43.066Z,20.4
2018-09-07T12:00:43.811Z,19.3
2018-09-07T12:01:44.527Z,22.7
2018-09-07T12:02:45.270Z,20.7
2018-09-07T12:03:46.924Z,19.7
2018-09-07T12:04:47.665Z,18.8
2018-09-07T12:05:48.396Z,17.1
2018-09-07T12:06:49.135Z,18.8
2018-09-07T12:07:49.896Z,15.8
2018-09-07T12:08:50.628Z,15.6
2018-09-07T12:09:51.714Z,16.1
2018-09-07T12:10:52.700Z,15.0
2018-09-07T12:11:53.417Z,14.7
2018-09-07T12:12:54.259Z,14.5
2018-09-07T12:13:54.966Z,13.6
2018-09-07T12:14:55.753Z,13.1
2018-09-07T12:15:56.485Z,12.7
2018-09-07T12:16:57.217Z,10.9
2018-09-07T12:17:57.939Z,12.7
2018-09-07T12:18:58.687Z,11.4
2018-09-07T12:19:59.459Z,13.5
2018-09-07T12:21:00.234Z,11.7
2018-09-07T12:22:00.921Z,11.3
2018-09-07T12:23:01.669Z,13.3
2018-09-07T12:24:02.405Z,11.5
2018-09-07T12:25:03.178Z,13.0
2018-09-07T12:26:03.909Z,16.8
2018-09-07T12:27:04.647Z,11.1
2018-09-07T12:28:05.397Z,10.3
2018-09-07T12:29:06.089Z,11.7
2018-09-07T12:30:06.821Z,12.0
2018-09-07T12:31:07.551Z,11.7
2018-09-07T12:32:08.284Z,11.8
2018-09-07T12:33:09.013Z,9.5
2018-09-07T12:34:09.754Z,10.4
2018-09-07T12:35:10.474Z,10.3
2018-09-07T12:36:11.206Z,10.4
2018-09-07T12:37:11.930Z,11.7
2018-09-07T12:38:12.659Z,9.3
2018-09-07T12:39:13.386Z,9.5
2018-09-07T12:40:14.120Z,9.2
2018-09-07T12:41:14.857Z,9.1
2018-09-07T12:42:15.596Z,12.9
2018-09-07T12:43:16.326Z,10.2
2018-09-07T12:44:17.047Z,9.5
2018-09-07T12:45:18.038Z,8.5
2018-09-07T12:46:18.806Z,9.0
2018-09-07T12:47:19.545Z,8.5
2018-09-07T12:48:20.289Z,7.6
2018-09-07T12:49:21.004Z,7.1
2018-09-07T12:50:21.745Z,14.3
2018-09-07T12:51:22.470Z,6.6
2018-09-07T12:52:23.222Z,8.1
2018-09-07T12:53:23.981Z,6.6
2018-09-07T12:54:24.713Z,7.3
2018-09-07T12:55:25.440Z,6.0
2018-09-07T12:56:26.192Z,6.1
2018-09-07T12:57:27.267Z,7.5
2018-09-07T12:58:27.988Z,5.7
2018-09-07T12:59:28.722Z,5.3
2018-09-07T13:00:29.455Z,4.8
2018-09-07T13:01:30.186Z,5.8
2018-09-07T13:02:30.984Z,4.4
2018-09-07T13:03:31.649Z,5.3
2018-09-07T13:04:32.367Z,4.6
2018-09-07T13:05:33.093Z,5.1
2018-09-07T13:06:33.821Z,5.9
2018-09-07T13:07:34.848Z,5.0
2018-09-07T13:08:35.581Z,4.8
2018-09-07T13:09:36.326Z,3.9
2018-09-07T13:10:37.046Z,4.1
2018-09-07T13:11:37.779Z,8.9
2018-09-07T13:12:38.510Z,3.7
2018-09-07T13:13:39.296Z,3.7
2018-09-07T13:14:40.029Z,4.7
2018-09-07T13:15:40.751Z,4.2
2018-09-07T13:16:41.729Z,4.0
2018-09-07T13:17:42.458Z,5.3
2018-09-07T13:18:43.201Z,3.4
2018-09-07T13:19:43.941Z,4.0
2018-09-07T13:20:44.670Z,3.4
2018-09-07T13:21:45.500Z,3.8
2018-09-07T13:22:46.140Z,3.5
2018-09-07T13:23:46.875Z,3.7
2018-09-07T13:24:47.599Z,3.7
2018-09-07T13:25:48.585Z,3.0
2018-09-07T13:26:49.325Z,3.6
2018-09-07T13:27:50.064Z,4.0